sensor_id;sensor_type;location;lat;lon;timestamp;P1;durP1;ratioP1;P2;durP2;ratioP2
20884;SDS011;10602;48.000;9.654;2022-11-10T00:01:08;14.60;;;12.77;;
20884;SDS011;10602;48.000;9.654;2022-11-10T00:03:36;13.63;;;12.27;;
20884;SDS011;10602;48.000;9.654;2022-11-10T00:06:05;13.30;;;11.90;;
20884;SDS011;10602;48.000;9.654;2022-11-10T00:08:34;14.23;;;12.37;;
20884;SDS011;10602;48.000;9.654;2022-11-10T00:11:03;13.03;;;11.73;;
20884;SDS011;10602;48.000;9.654;2022-11-10T00:13:32;13.07;;;11.67;;
20884;SDS011;10602;48.000;9.654;2022-11-10T00:16:03;12.17;;;10.97;;
20884;SDS011;10602;48.000;9.654;2022-11-10T00:18:49;11.80;;;10.60;;
20884;SDS011;10602;48.000;9.654;2022-11-10T00:21:17;10.97;;;9.87;;
20884;SDS011;10602;48.000;9.654;2022-11-10T00:23:45;15.90;;;12.43;;
20884;SDS011;10602;48.000;9.654;2022-11-10T00:26:13;10.00;;;9.00;;
20884;SDS011;10602;48.000;9.654;2022-11-10T00:28:43;10.20;;;9.07;;
20884;SDS011;10602;48.000;9.654;2022-11-10T00:31:11;21.13;;;16.07;;
20884;SDS011;10602;48.000;9.654;2022-11-10T00:33:39;21.30;;;15.83;;
20884;SDS011;10602;48.000;9.654;2022-11-10T00:36:09;8.13;;;7.33;;
20884;SDS011;10602;48.000;9.654;2022-11-10T00:38:36;7.27;;;6.57;;
20884;SDS011;10602;48.000;9.654;2022-11-10T00:41:04;7.40;;;6.70;;
20884;SDS011;10602;48.000;9.654;2022-11-10T00:43:32;7.67;;;6.23;;
20884;SDS011;10602;48.000;9.654;2022-11-10T00:45:59;7.60;;;6.90;;
20884;SDS011;10602;48.000;9.654;2022-11-10T06:38:51;16.53;;;4.43;;
20884;SDS011;10602;48.000;9.654;2022-11-10T06:41:18;9.37;;;5.93;;
20884;SDS011;10602;48.000;9.654;2022-11-10T06:43:46;8.73;;;5.07;;
20884;SDS011;10602;48.000;9.654;2022-11-10T06:46:13;19.27;;;12.27;;
20884;SDS011;10602;48.000;9.654;2022-11-10T06:48:41;17.90;;;8.50;;
20884;SDS011;10602;48.000;9.654;2022-11-10T06:51:08;9.23;;;4.37;;
20884;SDS011;10602;48.000;9.654;2022-11-10T06:53:36;14.80;;;5.90;;
20884;SDS011;10602;48.000;9.654;2022-11-10T06:56:03;13.43;;;4.50;;
20884;SDS011;10602;48.000;9.654;2022-11-10T06:58:31;12.53;;;4.20;;
20884;SDS011;10602;48.000;9.654;2022-11-10T07:00:59;5.43;;;4.10;;
20884;SDS011;10602;48.000;9.654;2022-11-10T07:03:26;13.13;;;3.93;;
20884;SDS011;10602;48.000;9.654;2022-11-10T07:05:54;16.47;;;4.63;;
20884;SDS011;10602;48.000;9.654;2022-11-10T07:08:21;13.10;;;3.73;;
20884;SDS011;10602;48.000;9.654;2022-11-10T07:10:52;13.03;;;3.93;;
20884;SDS011;10602;48.000;9.654;2022-11-10T07:13:21;26.47;;;4.10;;
20884;SDS011;10602;48.000;9.654;2022-11-10T07:15:49;13.27;;;4.17;;
20884;SDS011;10602;48.000;9.654;2022-11-10T07:18:17;18.03;;;4.03;;
20884;SDS011;10602;48.000;9.654;2022-11-10T07:20:44;17.47;;;4.60;;
20884;SDS011;10602;48.000;9.654;2022-11-10T07:23:12;20.60;;;3.83;;
20884;SDS011;10602;48.000;9.654;2022-11-10T07:25:39;14.83;;;4.57;;
20884;SDS011;10602;48.000;9.654;2022-11-10T07:28:07;27.43;;;5.17;;
20884;SDS011;10602;48.000;9.654;2022-11-10T07:30:38;11.13;;;4.00;;
20884;SDS011;10602;48.000;9.654;2022-11-10T07:33:08;21.07;;;4.80;;
20884;SDS011;10602;48.000;9.654;2022-11-10T07:35:37;15.47;;;5.77;;
20884;SDS011;10602;48.000;9.654;2022-11-10T07:38:05;19.37;;;6.17;;
20884;SDS011;10602;48.000;9.654;2022-11-10T07:40:35;38.07;;;4.50;;
20884;SDS011;10602;48.000;9.654;2022-11-10T07:43:03;21.23;;;5.50;;
20884;SDS011;10602;48.000;9.654;2022-11-10T07:45:31;11.87;;;3.90;;
20884;SDS011;10602;48.000;9.654;2022-11-10T07:48:03;17.47;;;4.40;;
20884;SDS011;10602;48.000;9.654;2022-11-10T07:50:32;12.47;;;3.70;;
20884;SDS011;10602;48.000;9.654;2022-11-10T07:55:33;20.07;;;4.43;;
20884;SDS011;10602;48.000;9.654;2022-11-10T07:58:04;18.90;;;3.37;;
20884;SDS011;10602;48.000;9.654;2022-11-10T08:00:33;8.77;;;3.67;;
20884;SDS011;10602;48.000;9.654;2022-11-10T08:05:42;20.40;;;3.67;;
20884;SDS011;10602;48.000;9.654;2022-11-10T08:08:09;20.57;;;3.93;;
20884;SDS011;10602;48.000;9.654;2022-11-10T08:10:38;12.47;;;3.97;;
20884;SDS011;10602;48.000;9.654;2022-11-10T08:13:07;23.97;;;4.70;;
20884;SDS011;10602;48.000;9.654;2022-11-10T08:15:36;19.23;;;4.57;;
20884;SDS011;10602;48.000;9.654;2022-11-10T08:18:05;23.80;;;3.43;;
20884;SDS011;10602;48.000;9.654;2022-11-10T08:20:37;20.67;;;3.50;;
20884;SDS011;10602;48.000;9.654;2022-11-10T08:23:04;21.60;;;3.47;;
20884;SDS011;10602;48.000;9.654;2022-11-10T08:25:33;19.37;;;3.27;;
20884;SDS011;10602;48.000;9.654;2022-11-10T08:28:04;8.93;;;3.20;;
20884;SDS011;10602;48.000;9.654;2022-11-10T08:30:39;19.73;;;3.53;;
20884;SDS011;10602;48.000;9.654;2022-11-10T08:33:09;12.80;;;4.80;;
20884;SDS011;10602;48.000;9.654;2022-11-10T08:35:39;10.80;;;3.13;;
20884;SDS011;10602;48.000;9.654;2022-11-10T08:38:09;7.90;;;4.10;;
20884;SDS011;10602;48.000;9.654;2022-11-10T08:40:38;13.50;;;3.90;;
20884;SDS011;10602;48.000;9.654;2022-11-10T08:43:06;17.77;;;4.93;;
20884;SDS011;10602;48.000;9.654;2022-11-10T08:45:35;9.87;;;4.70;;
20884;SDS011;10602;48.000;9.654;2022-11-10T08:48:07;13.77;;;4.27;;
20884;SDS011;10602;48.000;9.654;2022-11-10T08:50:39;20.77;;;4.37;;
20884;SDS011;10602;48.000;9.654;2022-11-10T08:53:14;27.13;;;3.80;;
20884;SDS011;10602;48.000;9.654;2022-11-10T08:55:43;20.10;;;5.27;;
20884;SDS011;10602;48.000;9.654;2022-11-10T08:58:12;14.50;;;4.27;;
20884;SDS011;10602;48.000;9.654;2022-11-10T09:00:41;13.53;;;4.67;;
20884;SDS011;10602;48.000;9.654;2022-11-10T09:03:16;6.87;;;5.30;;
20884;SDS011;10602;48.000;9.654;2022-11-10T09:05:45;14.63;;;4.33;;
20884;SDS011;10602;48.000;9.654;2022-11-10T09:08:14;15.40;;;6.60;;
20884;SDS011;10602;48.000;9.654;2022-11-10T09:10:43;8.93;;;5.70;;
20884;SDS011;10602;48.000;9.654;2022-11-10T09:13:13;10.97;;;4.43;;
20884;SDS011;10602;48.000;9.654;2022-11-10T09:15:41;20.47;;;4.97;;
20884;SDS011;10602;48.000;9.654;2022-11-10T09:18:10;20.37;;;4.23;;
20884;SDS011;10602;48.000;9.654;2022-11-10T09:20:40;10.70;;;4.00;;
20884;SDS011;10602;48.000;9.654;2022-11-10T09:23:12;41.27;;;13.33;;
20884;SDS011;10602;48.000;9.654;2022-11-10T09:25:38;20.00;;;9.20;;
20884;SDS011;10602;48.000;9.654;2022-11-10T09:28:12;15.43;;;8.63;;
20884;SDS011;10602;48.000;9.654;2022-11-10T09:30:41;26.40;;;8.63;;
20884;SDS011;10602;48.000;9.654;2022-11-10T09:33:16;25.67;;;9.67;;
20884;SDS011;10602;48.000;9.654;2022-11-10T09:35:44;39.00;;;8.17;;
20884;SDS011;10602;48.000;9.654;2022-11-10T09:38:12;33.90;;;8.20;;
20884;SDS011;10602;48.000;9.654;2022-11-10T09:40:48;56.40;;;25.77;;
20884;SDS011;10602;48.000;9.654;2022-11-10T09:43:20;69.87;;;31.87;;
20884;SDS011;10602;48.000;9.654;2022-11-10T09:46:14;21.73;;;9.83;;
20884;SDS011;10602;48.000;9.654;2022-11-10T09:48:49;5.97;;;4.50;;
20884;SDS011;10602;48.000;9.654;2022-11-10T09:51:25;25.90;;;3.70;;
20884;SDS011;10602;48.000;9.654;2022-11-10T09:54:04;31.43;;;20.00;;
20884;SDS011;10602;48.000;9.654;2022-11-10T09:56:47;25.03;;;13.03;;
20884;SDS011;10602;48.000;9.654;2022-11-10T09:59:18;33.53;;;20.27;;
20884;SDS011;10602;48.000;9.654;2022-11-10T10:04:47;4.10;;;3.10;;
20884;SDS011;10602;48.000;9.654;2022-11-10T10:07:26;9.27;;;2.73;;
20884;SDS011;10602;48.000;9.654;2022-11-10T10:12:56;5.17;;;3.40;;
20884;SDS011;10602;48.000;9.654;2022-11-10T10:15:48;3.10;;;2.77;;
20884;SDS011;10602;48.000;9.654;2022-11-10T10:18:21;3.03;;;2.77;;
20884;SDS011;10602;48.000;9.654;2022-11-10T10:23:32;3.33;;;2.60;;
20884;SDS011;10602;48.000;9.654;2022-11-10T10:26:00;3.87;;;2.80;;
20884;SDS011;10602;48.000;9.654;2022-11-10T10:28:30;2.80;;;2.47;;
20884;SDS011;10602;48.000;9.654;2022-11-10T10:31:16;10.10;;;9.07;;
20884;SDS011;10602;48.000;9.654;2022-11-10T10:33:44;5.20;;;2.90;;
20884;SDS011;10602;48.000;9.654;2022-11-10T10:36:24;2.83;;;2.50;;
20884;SDS011;10602;48.000;9.654;2022-11-10T10:38:47;2.30;;;2.10;;
20884;SDS011;10602;48.000;9.654;2022-11-10T10:41:24;3.23;;;2.70;;
20884;SDS011;10602;48.000;9.654;2022-11-10T10:43:56;2.77;;;2.57;;
20884;SDS011;10602;48.000;9.654;2022-11-10T10:46:26;3.27;;;2.80;;
20884;SDS011;10602;48.000;9.654;2022-11-10T10:49:06;2.90;;;2.53;;
20884;SDS011;10602;48.000;9.654;2022-11-10T10:51:48;4.10;;;2.20;;
20884;SDS011;10602;48.000;9.654;2022-11-10T10:57:00;2.93;;;2.53;;
20884;SDS011;10602;48.000;9.654;2022-11-10T10:59:47;2.90;;;2.20;;
20884;SDS011;10602;48.000;9.654;2022-11-10T11:02:23;3.08;;;2.33;;
20884;SDS011;10602;48.000;9.654;2022-11-10T11:05:14;2.97;;;2.23;;
20884;SDS011;10602;48.000;9.654;2022-11-10T11:07:56;2.45;;;2.10;;
20884;SDS011;10602;48.000;9.654;2022-11-10T15:24:48;6.30;;;3.97;;
20884;SDS011;10602;48.000;9.654;2022-11-10T15:32:53;3.20;;;2.40;;
20884;SDS011;10602;48.000;9.654;2022-11-10T15:40:47;5.20;;;4.30;;
20884;SDS011;10602;48.000;9.654;2022-11-10T15:45:54;6.43;;;4.33;;
20884;SDS011;10602;48.000;9.654;2022-11-10T15:48:24;5.17;;;3.50;;
20884;SDS011;10602;48.000;9.654;2022-11-10T15:50:53;5.83;;;2.90;;
20884;SDS011;10602;48.000;9.654;2022-11-10T15:53:30;2.97;;;1.90;;
20884;SDS011;10602;48.000;9.654;2022-11-10T15:55:59;3.40;;;1.60;;
20884;SDS011;10602;48.000;9.654;2022-11-10T15:58:26;3.00;;;1.60;;
20884;SDS011;10602;48.000;9.654;2022-11-10T16:00:54;4.63;;;1.83;;
20884;SDS011;10602;48.000;9.654;2022-11-10T16:03:23;3.03;;;1.70;;
20884;SDS011;10602;48.000;9.654;2022-11-10T16:05:52;2.97;;;1.73;;
20884;SDS011;10602;48.000;9.654;2022-11-10T16:08:20;2.70;;;1.47;;
20884;SDS011;10602;48.000;9.654;2022-11-10T16:10:54;1.83;;;1.47;;
20884;SDS011;10602;48.000;9.654;2022-11-10T16:13:21;3.63;;;2.17;;
20884;SDS011;10602;48.000;9.654;2022-11-10T16:15:53;3.10;;;2.20;;
20884;SDS011;10602;48.000;9.654;2022-11-10T16:18:21;4.57;;;2.80;;
20884;SDS011;10602;48.000;9.654;2022-11-10T16:20:51;11.77;;;7.73;;
20884;SDS011;10602;48.000;9.654;2022-11-10T16:23:21;10.70;;;7.40;;
20884;SDS011;10602;48.000;9.654;2022-11-10T16:25:55;13.10;;;9.40;;
20884;SDS011;10602;48.000;9.654;2022-11-10T16:28:26;12.20;;;9.53;;
20884;SDS011;10602;48.000;9.654;2022-11-10T16:30:55;11.50;;;7.97;;
20884;SDS011;10602;48.000;9.654;2022-11-10T16:33:24;7.83;;;4.67;;
20884;SDS011;10602;48.000;9.654;2022-11-10T16:35:53;4.27;;;3.40;;
20884;SDS011;10602;48.000;9.654;2022-11-10T16:38:22;5.47;;;3.57;;
20884;SDS011;10602;48.000;9.654;2022-11-10T16:40:53;4.50;;;3.07;;
20884;SDS011;10602;48.000;9.654;2022-11-10T16:43:28;6.50;;;3.67;;
20884;SDS011;10602;48.000;9.654;2022-11-10T16:45:58;5.63;;;3.10;;
20884;SDS011;10602;48.000;9.654;2022-11-10T16:48:29;5.00;;;2.53;;
20884;SDS011;10602;48.000;9.654;2022-11-10T16:50:59;4.83;;;2.57;;
20884;SDS011;10602;48.000;9.654;2022-11-10T16:53:28;5.90;;;3.40;;
20884;SDS011;10602;48.000;9.654;2022-11-10T16:55:57;6.30;;;5.33;;
20884;SDS011;10602;48.000;9.654;2022-11-10T16:58:26;21.27;;;15.33;;
20884;SDS011;10602;48.000;9.654;2022-11-10T17:00:59;28.27;;;20.90;;
20884;SDS011;10602;48.000;9.654;2022-11-10T17:03:28;27.57;;;21.13;;
20884;SDS011;10602;48.000;9.654;2022-11-10T17:05:55;22.50;;;18.80;;
20884;SDS011;10602;48.000;9.654;2022-11-10T17:08:23;20.17;;;15.33;;
20884;SDS011;10602;48.000;9.654;2022-11-10T17:10:53;12.70;;;10.67;;
20884;SDS011;10602;48.000;9.654;2022-11-10T17:13:23;7.93;;;6.90;;
20884;SDS011;10602;48.000;9.654;2022-11-10T17:15:51;7.30;;;6.23;;
20884;SDS011;10602;48.000;9.654;2022-11-10T17:18:21;7.77;;;5.03;;
20884;SDS011;10602;48.000;9.654;2022-11-10T17:20:50;5.23;;;4.50;;
20884;SDS011;10602;48.000;9.654;2022-11-10T17:23:19;8.80;;;7.40;;
20884;SDS011;10602;48.000;9.654;2022-11-10T17:25:49;10.63;;;7.80;;
20884;SDS011;10602;48.000;9.654;2022-11-10T17:28:18;10.20;;;6.67;;
20884;SDS011;10602;48.000;9.654;2022-11-10T17:30:46;8.57;;;7.03;;
20884;SDS011;10602;48.000;9.654;2022-11-10T17:33:14;12.10;;;7.70;;
20884;SDS011;10602;48.000;9.654;2022-11-10T17:35:47;11.23;;;7.70;;
20884;SDS011;10602;48.000;9.654;2022-11-10T17:38:12;12.20;;;8.43;;
20884;SDS011;10602;48.000;9.654;2022-11-10T17:40:51;12.43;;;8.53;;
20884;SDS011;10602;48.000;9.654;2022-11-10T17:43:18;11.43;;;9.20;;
20884;SDS011;10602;48.000;9.654;2022-11-10T17:45:46;14.67;;;10.27;;
20884;SDS011;10602;48.000;9.654;2022-11-10T17:48:14;12.53;;;9.43;;
20884;SDS011;10602;48.000;9.654;2022-11-10T17:50:42;12.97;;;9.50;;
20884;SDS011;10602;48.000;9.654;2022-11-10T17:53:23;11.90;;;9.17;;
20884;SDS011;10602;48.000;9.654;2022-11-10T17:55:46;13.43;;;9.93;;
20884;SDS011;10602;48.000;9.654;2022-11-10T17:58:15;15.73;;;11.33;;
20884;SDS011;10602;48.000;9.654;2022-11-10T18:00:43;19.23;;;13.27;;
20884;SDS011;10602;48.000;9.654;2022-11-10T18:03:19;12.17;;;10.87;;
20884;SDS011;10602;48.000;9.654;2022-11-10T18:05:44;10.20;;;8.37;;
20884;SDS011;10602;48.000;9.654;2022-11-10T18:08:13;6.30;;;5.70;;
20884;SDS011;10602;48.000;9.654;2022-11-10T18:10:45;7.03;;;5.53;;
20884;SDS011;10602;48.000;9.654;2022-11-10T18:13:13;6.33;;;5.00;;
20884;SDS011;10602;48.000;9.654;2022-11-10T18:15:42;8.93;;;7.20;;
20884;SDS011;10602;48.000;9.654;2022-11-10T18:18:16;8.90;;;7.20;;
20884;SDS011;10602;48.000;9.654;2022-11-10T18:20:40;10.30;;;7.60;;
20884;SDS011;10602;48.000;9.654;2022-11-10T18:23:10;13.23;;;7.63;;
20884;SDS011;10602;48.000;9.654;2022-11-10T18:25:38;8.23;;;6.50;;
20884;SDS011;10602;48.000;9.654;2022-11-10T18:28:08;8.03;;;6.27;;
20884;SDS011;10602;48.000;9.654;2022-11-10T18:30:38;9.30;;;6.70;;
20884;SDS011;10602;48.000;9.654;2022-11-10T18:33:07;9.20;;;6.70;;
20884;SDS011;10602;48.000;9.654;2022-11-10T18:35:38;14.47;;;8.70;;
20884;SDS011;10602;48.000;9.654;2022-11-10T18:38:06;11.47;;;8.67;;
20884;SDS011;10602;48.000;9.654;2022-11-10T18:40:36;10.80;;;9.70;;
20884;SDS011;10602;48.000;9.654;2022-11-10T18:43:04;12.10;;;10.03;;
20884;SDS011;10602;48.000;9.654;2022-11-10T18:45:32;13.13;;;9.23;;
20884;SDS011;10602;48.000;9.654;2022-11-10T18:48:01;11.13;;;7.93;;
20884;SDS011;10602;48.000;9.654;2022-11-10T18:50:29;9.17;;;7.93;;
20884;SDS011;10602;48.000;9.654;2022-11-10T18:52:57;9.40;;;8.40;;
20884;SDS011;10602;48.000;9.654;2022-11-10T18:55:25;10.03;;;8.53;;
20884;SDS011;10602;48.000;9.654;2022-11-10T18:57:53;9.13;;;6.40;;
20884;SDS011;10602;48.000;9.654;2022-11-10T19:00:23;7.63;;;6.27;;
20884;SDS011;10602;48.000;9.654;2022-11-10T19:02:50;10.77;;;7.03;;
20884;SDS011;10602;48.000;9.654;2022-11-10T19:05:17;9.63;;;7.00;;
20884;SDS011;10602;48.000;9.654;2022-11-10T19:10:37;6.17;;;5.43;;
20884;SDS011;10602;48.000;9.654;2022-11-10T19:13:05;8.57;;;5.50;;
20884;SDS011;10602;48.000;9.654;2022-11-10T19:15:38;7.73;;;5.47;;
20884;SDS011;10602;48.000;9.654;2022-11-10T19:18:07;7.90;;;4.90;;
20884;SDS011;10602;48.000;9.654;2022-11-10T19:20:35;5.93;;;4.67;;
20884;SDS011;10602;48.000;9.654;2022-11-10T19:23:04;8.13;;;6.77;;
20884;SDS011;10602;48.000;9.654;2022-11-10T19:25:31;9.77;;;7.20;;
20884;SDS011;10602;48.000;9.654;2022-11-10T19:27:59;7.40;;;6.67;;
20884;SDS011;10602;48.000;9.654;2022-11-10T19:30:26;6.33;;;5.43;;
20884;SDS011;10602;48.000;9.654;2022-11-10T19:32:54;8.13;;;6.13;;
20884;SDS011;10602;48.000;9.654;2022-11-10T19:35:22;11.40;;;6.43;;
20884;SDS011;10602;48.000;9.654;2022-11-10T19:37:49;18.67;;;15.00;;
20884;SDS011;10602;48.000;9.654;2022-11-10T19:40:19;12.70;;;10.10;;
20884;SDS011;10602;48.000;9.654;2022-11-10T19:42:47;8.90;;;8.00;;
20884;SDS011;10602;48.000;9.654;2022-11-10T19:45:15;10.33;;;8.43;;
20884;SDS011;10602;48.000;9.654;2022-11-10T19:47:42;20.93;;;15.90;;
20884;SDS011;10602;48.000;9.654;2022-11-10T19:50:10;22.40;;;14.60;;
20884;SDS011;10602;48.000;9.654;2022-11-10T19:52:37;17.97;;;13.03;;
20884;SDS011;10602;48.000;9.654;2022-11-10T19:55:05;16.60;;;11.90;;
20884;SDS011;10602;48.000;9.654;2022-11-10T19:57:33;14.43;;;9.40;;
20884;SDS011;10602;48.000;9.654;2022-11-10T20:00:00;11.20;;;8.43;;
20884;SDS011;10602;48.000;9.654;2022-11-10T20:02:28;9.53;;;7.30;;
20884;SDS011;10602;48.000;9.654;2022-11-10T20:04:56;7.20;;;5.77;;
20884;SDS011;10602;48.000;9.654;2022-11-10T20:07:41;11.07;;;7.60;;
20884;SDS011;10602;48.000;9.654;2022-11-10T20:10:30;6.67;;;5.77;;
20884;SDS011;10602;48.000;9.654;2022-11-10T20:12:58;5.67;;;4.73;;
20884;SDS011;10602;48.000;9.654;2022-11-10T20:15:25;6.17;;;4.87;;
20884;SDS011;10602;48.000;9.654;2022-11-10T20:17:53;7.57;;;4.90;;
20884;SDS011;10602;48.000;9.654;2022-11-10T20:20:22;18.03;;;9.63;;
20884;SDS011;10602;48.000;9.654;2022-11-10T20:22:49;35.57;;;20.20;;
20884;SDS011;10602;48.000;9.654;2022-11-10T20:25:17;29.57;;;16.17;;
20884;SDS011;10602;48.000;9.654;2022-11-10T20:27:44;20.10;;;12.40;;
20884;SDS011;10602;48.000;9.654;2022-11-10T20:30:12;16.03;;;9.27;;
20884;SDS011;10602;48.000;9.654;2022-11-10T20:32:39;15.73;;;9.83;;
20884;SDS011;10602;48.000;9.654;2022-11-10T20:35:07;9.50;;;6.87;;
20884;SDS011;10602;48.000;9.654;2022-11-10T20:37:34;9.00;;;6.00;;
20884;SDS011;10602;48.000;9.654;2022-11-10T20:40:05;6.53;;;4.70;;
20884;SDS011;10602;48.000;9.654;2022-11-10T20:42:33;8.67;;;5.80;;
20884;SDS011;10602;48.000;9.654;2022-11-10T20:45:02;7.80;;;5.07;;
20884;SDS011;10602;48.000;9.654;2022-11-10T20:47:30;7.40;;;4.60;;
20884;SDS011;10602;48.000;9.654;2022-11-10T20:49:58;5.80;;;4.83;;
20884;SDS011;10602;48.000;9.654;2022-11-10T20:52:26;6.90;;;4.77;;
20884;SDS011;10602;48.000;9.654;2022-11-10T20:54:53;7.17;;;4.90;;
20884;SDS011;10602;48.000;9.654;2022-11-10T20:57:21;6.40;;;4.80;;
20884;SDS011;10602;48.000;9.654;2022-11-10T20:59:48;5.60;;;4.27;;
20884;SDS011;10602;48.000;9.654;2022-11-10T21:02:16;6.30;;;4.03;;
20884;SDS011;10602;48.000;9.654;2022-11-10T21:04:43;5.90;;;4.23;;
20884;SDS011;10602;48.000;9.654;2022-11-10T21:07:11;5.33;;;4.37;;
20884;SDS011;10602;48.000;9.654;2022-11-10T21:09:38;5.73;;;4.17;;
20884;SDS011;10602;48.000;9.654;2022-11-10T21:12:06;7.43;;;4.20;;
20884;SDS011;10602;48.000;9.654;2022-11-10T21:14:52;3.70;;;3.30;;
20884;SDS011;10602;48.000;9.654;2022-11-10T21:17:20;5.43;;;3.40;;
20884;SDS011;10602;48.000;9.654;2022-11-10T21:19:48;6.10;;;3.70;;
20884;SDS011;10602;48.000;9.654;2022-11-10T21:22:15;3.63;;;3.23;;
20884;SDS011;10602;48.000;9.654;2022-11-10T21:24:45;5.33;;;3.77;;
20884;SDS011;10602;48.000;9.654;2022-11-10T21:27:12;3.60;;;2.93;;
20884;SDS011;10602;48.000;9.654;2022-11-10T21:29:40;4.37;;;2.80;;
20884;SDS011;10602;48.000;9.654;2022-11-10T21:32:07;2.90;;;2.60;;
20884;SDS011;10602;48.000;9.654;2022-11-10T21:34:35;3.67;;;2.90;;
20884;SDS011;10602;48.000;9.654;2022-11-10T21:37:02;4.63;;;4.13;;
20884;SDS011;10602;48.000;9.654;2022-11-10T21:39:30;9.23;;;5.50;;
20884;SDS011;10602;48.000;9.654;2022-11-10T21:41:57;5.70;;;4.53;;
20884;SDS011;10602;48.000;9.654;2022-11-10T21:44:25;7.07;;;4.57;;
20884;SDS011;10602;48.000;9.654;2022-11-10T21:46:52;7.50;;;5.50;;
20884;SDS011;10602;48.000;9.654;2022-11-10T21:49:20;10.00;;;6.20;;
20884;SDS011;10602;48.000;9.654;2022-11-10T21:51:48;9.47;;;7.23;;
20884;SDS011;10602;48.000;9.654;2022-11-10T21:54:15;9.50;;;6.03;;
20884;SDS011;10602;48.000;9.654;2022-11-10T21:56:43;6.83;;;5.23;;
20884;SDS011;10602;48.000;9.654;2022-11-10T21:59:10;6.17;;;5.37;;
20884;SDS011;10602;48.000;9.654;2022-11-10T22:01:38;6.87;;;6.17;;
20884;SDS011;10602;48.000;9.654;2022-11-10T22:04:07;6.00;;;4.93;;
20884;SDS011;10602;48.000;9.654;2022-11-10T22:06:35;6.63;;;5.00;;
20884;SDS011;10602;48.000;9.654;2022-11-10T22:09:20;5.97;;;5.03;;
20884;SDS011;10602;48.000;9.654;2022-11-10T22:11:49;8.00;;;5.37;;
20884;SDS011;10602;48.000;9.654;2022-11-10T22:14:35;8.23;;;5.43;;
20884;SDS011;10602;48.000;9.654;2022-11-10T22:17:21;5.83;;;5.17;;
20884;SDS011;10602;48.000;9.654;2022-11-10T22:20:06;6.37;;;5.10;;
20884;SDS011;10602;48.000;9.654;2022-11-10T22:22:34;6.03;;;4.57;;
20884;SDS011;10602;48.000;9.654;2022-11-10T22:25:01;6.43;;;4.83;;
20884;SDS011;10602;48.000;9.654;2022-11-10T22:27:29;5.67;;;4.67;;
20884;SDS011;10602;48.000;9.654;2022-11-10T22:29:56;6.90;;;4.97;;
20884;SDS011;10602;48.000;9.654;2022-11-10T22:32:24;5.90;;;4.80;;
20884;SDS011;10602;48.000;9.654;2022-11-10T22:34:51;5.33;;;4.47;;
20884;SDS011;10602;48.000;9.654;2022-11-10T22:37:19;5.10;;;4.60;;
20884;SDS011;10602;48.000;9.654;2022-11-10T22:39:47;5.47;;;4.67;;
20884;SDS011;10602;48.000;9.654;2022-11-10T22:42:32;5.17;;;3.97;;
20884;SDS011;10602;48.000;9.654;2022-11-10T22:45:17;5.50;;;4.17;;
20884;SDS011;10602;48.000;9.654;2022-11-10T22:47:45;4.77;;;4.10;;
20884;SDS011;10602;48.000;9.654;2022-11-10T22:50:30;6.73;;;4.30;;
20884;SDS011;10602;48.000;9.654;2022-11-10T22:52:58;8.73;;;5.57;;
20884;SDS011;10602;48.000;9.654;2022-11-10T22:55:25;5.60;;;4.13;;
20884;SDS011;10602;48.000;9.654;2022-11-10T22:57:53;6.70;;;4.63;;
20884;SDS011;10602;48.000;9.654;2022-11-10T23:00:20;7.83;;;4.63;;
20884;SDS011;10602;48.000;9.654;2022-11-10T23:02:50;7.40;;;4.90;;
20884;SDS011;10602;48.000;9.654;2022-11-10T23:05:19;6.90;;;4.93;;
20884;SDS011;10602;48.000;9.654;2022-11-10T23:07:47;6.37;;;4.13;;
20884;SDS011;10602;48.000;9.654;2022-11-10T23:10:14;6.43;;;4.97;;
20884;SDS011;10602;48.000;9.654;2022-11-10T23:12:42;8.13;;;6.20;;
20884;SDS011;10602;48.000;9.654;2022-11-10T23:15:09;10.03;;;6.93;;
20884;SDS011;10602;48.000;9.654;2022-11-10T23:17:37;9.10;;;6.33;;
20884;SDS011;10602;48.000;9.654;2022-11-10T23:20:05;9.80;;;6.00;;
20884;SDS011;10602;48.000;9.654;2022-11-10T23:22:33;8.83;;;5.80;;
20884;SDS011;10602;48.000;9.654;2022-11-10T23:25:00;8.80;;;6.90;;
20884;SDS011;10602;48.000;9.654;2022-11-10T23:27:31;8.03;;;6.60;;
20884;SDS011;10602;48.000;9.654;2022-11-10T23:30:02;7.30;;;6.03;;
20884;SDS011;10602;48.000;9.654;2022-11-10T23:32:30;9.17;;;6.03;;
20884;SDS011;10602;48.000;9.654;2022-11-10T23:34:59;7.83;;;5.73;;
20884;SDS011;10602;48.000;9.654;2022-11-10T23:37:36;7.33;;;6.27;;
20884;SDS011;10602;48.000;9.654;2022-11-10T23:40:04;6.73;;;5.83;;
20884;SDS011;10602;48.000;9.654;2022-11-10T23:42:34;8.40;;;6.03;;
20884;SDS011;10602;48.000;9.654;2022-11-10T23:45:03;11.00;;;6.00;;
20884;SDS011;10602;48.000;9.654;2022-11-10T23:47:31;6.77;;;5.70;;
20884;SDS011;10602;48.000;9.654;2022-11-10T23:49:58;8.07;;;6.30;;
20884;SDS011;10602;48.000;9.654;2022-11-10T23:52:26;7.73;;;5.63;;
20884;SDS011;10602;48.000;9.654;2022-11-10T23:54:53;7.40;;;5.67;;
20884;SDS011;10602;48.000;9.654;2022-11-10T23:57:21;9.43;;;5.77;;
20884;SDS011;10602;48.000;9.654;2022-11-10T23:59:49;6.90;;;5.30;;
